createdAt,value
2022-08-10T00:01:22.363Z,19.44
2022-08-10T00:03:54.359Z,19.45
2022-08-10T00:06:26.425Z,19.45
2022-08-10T00:08:59.914Z,19.44
2022-08-10T00:11:31.934Z,19.45
2022-08-10T00:14:04.032Z,19.41
2022-08-10T00:16:36.030Z,19.42
2022-08-10T00:19:08.068Z,19.39
2022-08-10T00:21:42.341Z,19.36
2022-08-10T00:24:15.140Z,19.26
2022-08-10T00:27:52.115Z,19.27
2022-08-10T00:29:39.014Z,19.36
2022-08-10T00:32:10.988Z,19.42
2022-08-10T00:34:43.156Z,19.43
2022-08-10T00:37:17.389Z,19.44
2022-08-10T00:39:49.384Z,19.40
2022-08-10T00:42:21.391Z,19.38
2022-08-10T00:44:53.793Z,19.38
2022-08-10T00:47:36.765Z,19.32
2022-08-10T00:50:10.367Z,19.31
2022-08-10T00:52:42.338Z,19.28
2022-08-10T00:55:14.835Z,19.27
2022-08-10T00:57:55.247Z,19.24
2022-08-10T01:00:28.208Z,19.14
2022-08-10T01:03:00.363Z,19.10
2022-08-10T01:05:33.631Z,19.11
2022-08-10T01:08:32.377Z,19.05
2022-08-10T01:12:38.384Z,19.06
2022-08-10T01:14:36.385Z,19.07
2022-08-10T01:17:23.403Z,19.05
2022-08-10T01:20:34.895Z,18.99
2022-08-10T01:23:21.772Z,18.93
2022-08-10T01:26:43.247Z,18.88
2022-08-10T01:29:42.656Z,18.81
2022-08-10T01:32:22.395Z,18.86
2022-08-10T01:35:10.545Z,18.85
2022-08-10T01:38:16.790Z,18.84
2022-08-10T01:41:03.583Z,18.85
2022-08-10T01:43:41.876Z,18.83
2022-08-10T01:46:15.792Z,18.74
2022-08-10T01:48:55.195Z,18.63
2022-08-10T01:51:39.365Z,18.50
2022-08-10T01:54:20.058Z,18.48
2022-08-10T01:56:56.750Z,18.46
2022-08-10T01:59:34.766Z,18.41
2022-08-10T02:02:10.743Z,18.34
2022-08-10T02:04:48.078Z,18.41
2022-08-10T02:07:25.585Z,18.41
2022-08-10T02:10:04.529Z,18.45
2022-08-10T02:12:38.216Z,18.46
2022-08-10T02:15:22.153Z,18.46
2022-08-10T02:18:02.077Z,18.49
2022-08-10T02:20:45.981Z,18.50
2022-08-10T02:23:32.141Z,18.49
2022-08-10T02:26:07.189Z,18.34
2022-08-10T02:28:41.474Z,18.23
2022-08-10T02:31:23.012Z,18.12
2022-08-10T02:33:59.535Z,18.08
2022-08-10T02:36:34.541Z,18.00
2022-08-10T02:39:09.198Z,18.00
2022-08-10T02:45:14.851Z,17.90
2022-08-10T02:45:29.204Z,17.81
2022-08-10T02:48:12.674Z,17.69
2022-08-10T02:50:55.834Z,17.62
2022-08-10T02:53:54.934Z,17.63
2022-08-10T02:56:38.259Z,17.60
2022-08-10T02:59:11.251Z,17.53
2022-08-10T03:01:49.056Z,17.56
2022-08-10T03:04:55.345Z,17.55
2022-08-10T03:07:44.524Z,17.50
2022-08-10T03:10:21.984Z,17.42
2022-08-10T03:12:59.716Z,17.37
2022-08-10T03:15:34.978Z,17.27
2022-08-10T03:18:08.526Z,17.21
2022-08-10T03:20:43.126Z,17.19
2022-08-10T03:23:19.573Z,17.17
2022-08-10T03:25:56.765Z,17.17
2022-08-10T03:28:32.759Z,17.16
2022-08-10T03:31:04.791Z,17.14
2022-08-10T03:33:41.679Z,17.08
2022-08-10T03:36:40.397Z,17.08
2022-08-10T03:39:05.826Z,17.02
2022-08-10T03:41:53.568Z,17.07
2022-08-10T03:44:33.742Z,17.06
2022-08-10T03:47:16.506Z,17.01
2022-08-10T03:49:49.752Z,17.00
2022-08-10T03:52:22.077Z,16.99
2022-08-10T03:54:54.506Z,16.98
2022-08-10T03:57:30.081Z,16.98
2022-08-10T04:00:02.172Z,16.94
2022-08-10T04:02:44.653Z,16.94
2022-08-10T04:05:20.117Z,17.00
2022-08-10T04:07:52.128Z,17.00
2022-08-10T04:10:24.096Z,17.04
2022-08-10T04:12:56.392Z,17.01
2022-08-10T04:15:30.998Z,16.99
2022-08-10T04:18:06.274Z,17.00
2022-08-10T04:20:53.039Z,17.03
2022-08-10T04:23:29.585Z,17.05
2022-08-10T04:26:01.636Z,16.98
2022-08-10T04:28:33.851Z,17.04
2022-08-10T04:31:08.632Z,17.04
2022-08-10T04:33:46.081Z,17.02
2022-08-10T04:36:21.206Z,17.04
2022-08-10T04:38:54.260Z,17.04
2022-08-10T04:41:27.183Z,17.08
2022-08-10T04:43:59.377Z,17.14
2022-08-10T04:46:42.743Z,17.20
2022-08-10T04:49:54.217Z,17.28
2022-08-10T04:52:15.380Z,17.38
2022-08-10T04:54:47.384Z,17.46
2022-08-10T04:57:19.354Z,17.49
2022-08-10T04:59:51.291Z,17.48
2022-08-10T05:02:30.358Z,17.47
2022-08-10T05:05:04.662Z,17.50
2022-08-10T05:07:53.896Z,17.49
2022-08-10T05:10:28.794Z,17.55
2022-08-10T05:13:00.727Z,17.58
2022-08-10T05:15:32.720Z,17.65
2022-08-10T05:18:09.813Z,17.66
2022-08-10T05:20:47.193Z,17.74
2022-08-10T05:23:21.795Z,17.78
2022-08-10T05:25:53.763Z,17.84
2022-08-10T05:28:27.687Z,17.92
2022-08-10T05:31:02.789Z,17.97
2022-08-10T05:33:34.754Z,17.99
2022-08-10T05:36:07.413Z,18.05
2022-08-10T05:38:39.969Z,18.09
2022-08-10T05:41:12.146Z,18.14
2022-08-10T05:43:44.848Z,18.18
2022-08-10T05:46:21.103Z,18.24
2022-08-10T05:48:58.880Z,18.30
2022-08-10T05:51:32.117Z,18.35
2022-08-10T05:54:09.112Z,18.44
2022-08-10T05:56:54.908Z,18.50
2022-08-10T06:00:35.542Z,18.59
2022-08-10T06:02:35.768Z,18.70
2022-08-10T06:05:26.519Z,18.77
2022-08-10T06:08:05.026Z,18.83
2022-08-10T06:10:54.906Z,18.91
2022-08-10T06:14:13.388Z,18.98
2022-08-10T06:16:46.057Z,19.03
2022-08-10T06:19:19.146Z,19.10
2022-08-10T06:22:01.155Z,19.12
2022-08-10T06:25:04.682Z,19.20
2022-08-10T06:27:34.754Z,19.28
2022-08-10T06:30:20.103Z,19.37
2022-08-10T06:32:56.709Z,19.44
2022-08-10T06:35:32.557Z,19.43
2022-08-10T06:38:06.295Z,19.47
2022-08-10T06:40:47.374Z,19.57
2022-08-10T06:43:21.504Z,19.63
2022-08-10T06:46:07.488Z,19.70
2022-08-10T06:48:51.792Z,19.76
2022-08-10T06:51:30.090Z,19.89
2022-08-10T06:54:06.664Z,19.92
2022-08-10T06:57:01.695Z,20.00
2022-08-10T06:59:46.305Z,20.03
2022-08-10T07:02:30.168Z,20.12
2022-08-10T07:05:06.641Z,20.22
2022-08-10T07:07:41.216Z,20.30
2022-08-10T07:10:17.940Z,20.41
2022-08-10T07:12:54.960Z,20.49
2022-08-10T07:15:59.144Z,20.58
2022-08-10T07:18:20.920Z,20.70
2022-08-10T07:20:53.798Z,20.82
2022-08-10T07:23:58.843Z,20.89
2022-08-10T07:26:20.629Z,21.02
2022-08-10T07:28:53.411Z,21.15
2022-08-10T07:31:54.338Z,21.33
2022-08-10T07:34:29.188Z,21.46
2022-08-10T07:37:06.511Z,21.58
2022-08-10T07:40:02.103Z,21.72
2022-08-10T07:42:42.093Z,21.89
2022-08-10T07:45:17.410Z,22.01
2022-08-10T07:48:03.710Z,22.23
2022-08-10T07:50:41.327Z,22.45
2022-08-10T07:53:24.848Z,22.66
2022-08-10T07:56:07.607Z,22.97
2022-08-10T07:58:51.753Z,23.25
2022-08-10T08:01:29.594Z,23.77
2022-08-10T08:04:11.044Z,24.83
2022-08-10T08:06:45.914Z,26.32
2022-08-10T08:09:20.719Z,27.52
2022-08-10T08:11:54.723Z,28.92
2022-08-10T08:14:27.709Z,30.06
2022-08-10T08:17:02.626Z,31.03
2022-08-10T08:19:45.759Z,31.79
2022-08-10T08:24:06.194Z,32.50
2022-08-10T08:25:14.641Z,33.23
2022-08-10T08:27:52.781Z,33.52
2022-08-10T08:30:27.771Z,33.35
2022-08-10T08:33:01.262Z,33.19
2022-08-10T08:35:34.568Z,32.99
2022-08-10T08:38:33.407Z,32.90
2022-08-10T08:41:15.355Z,32.60
2022-08-10T08:44:17.414Z,32.86
2022-08-10T08:48:01.000Z,33.21
2022-08-10T08:50:23.884Z,33.50
2022-08-10T08:54:01.218Z,34.07
2022-08-10T08:56:50.112Z,34.42
2022-08-10T08:59:59.717Z,34.53
2022-08-10T09:03:09.178Z,34.95
2022-08-10T09:05:58.651Z,34.91
2022-08-10T09:08:53.895Z,34.58
2022-08-10T09:12:02.770Z,33.76
2022-08-10T09:14:42.003Z,33.64
2022-08-10T09:17:46.156Z,33.52
2022-08-10T09:20:37.544Z,33.34
2022-08-10T09:24:04.759Z,33.14
2022-08-10T09:26:51.774Z,32.95
2022-08-10T09:29:31.283Z,32.98
2022-08-10T09:36:13.815Z,33.06
2022-08-10T09:36:28.042Z,33.06
2022-08-10T09:38:38.117Z,32.84
2022-08-10T09:41:40.064Z,32.70
2022-08-10T09:44:58.045Z,32.51
2022-08-10T09:48:02.455Z,32.06
2022-08-10T09:54:35.474Z,31.93
2022-08-10T09:57:48.341Z,31.85
2022-08-10T10:00:23.950Z,32.02
2022-08-10T10:03:17.765Z,31.98
2022-08-10T10:06:19.093Z,32.17
2022-08-10T10:09:35.136Z,32.12
2022-08-10T10:12:37.200Z,32.28
2022-08-10T10:15:24.139Z,32.31
2022-08-10T10:18:03.432Z,32.37
2022-08-10T10:21:00.074Z,32.50
2022-08-10T10:24:15.565Z,32.70
2022-08-10T10:27:02.592Z,32.63
2022-08-10T10:29:57.242Z,32.46
2022-08-10T10:32:57.691Z,32.52
2022-08-10T10:35:44.577Z,32.53
2022-08-10T10:38:19.061Z,32.65
2022-08-10T10:42:03.729Z,33.11
2022-08-10T10:44:50.345Z,33.39
2022-08-10T10:47:46.741Z,33.53
2022-08-10T10:50:31.598Z,33.89
2022-08-10T10:53:19.169Z,34.20
2022-08-10T10:56:43.723Z,34.67
2022-08-10T10:59:57.774Z,34.97
2022-08-10T11:03:01.637Z,35.08
2022-08-10T11:05:43.437Z,35.45
2022-08-10T11:08:30.738Z,35.64
2022-08-10T11:11:25.355Z,36.16
2022-08-10T11:14:24.650Z,36.94
2022-08-10T11:17:12.055Z,37.68
2022-08-10T11:20:26.321Z,38.36
2022-08-10T11:23:31.855Z,38.62
2022-08-10T11:26:25.211Z,38.45
2022-08-10T11:29:43.913Z,38.41
2022-08-10T11:32:37.706Z,39.03
2022-08-10T11:35:34.822Z,39.97
2022-08-10T11:39:11.098Z,40.68
2022-08-10T11:42:09.072Z,41.45
2022-08-10T11:45:00.454Z,42.24
2022-08-10T11:47:41.472Z,41.91
2022-08-10T11:50:37.054Z,41.91
2022-08-10T11:53:24.696Z,42.47
2022-08-10T11:55:59.860Z,42.58
2022-08-10T11:59:00.443Z,42.93
2022-08-10T12:01:34.247Z,43.00
2022-08-10T12:04:11.890Z,42.69
2022-08-10T12:06:55.691Z,42.60
2022-08-10T12:10:09.738Z,42.79
2022-08-10T12:12:23.686Z,42.76
2022-08-10T12:15:15.717Z,42.64
2022-08-10T12:17:54.805Z,42.70
2022-08-10T12:20:35.095Z,42.68
2022-08-10T12:23:24.474Z,42.82
2022-08-10T12:26:21.150Z,43.03
2022-08-10T12:29:15.246Z,43.64
2022-08-10T12:32:27.688Z,44.13
2022-08-10T12:35:26.079Z,44.25
2022-08-10T12:38:35.064Z,43.99
2022-08-10T12:41:43.522Z,43.75
2022-08-10T12:44:43.311Z,43.87
2022-08-10T12:47:50.556Z,43.81
2022-08-10T12:50:59.834Z,44.07
2022-08-10T12:53:56.723Z,44.04
2022-08-10T12:56:36.844Z,43.45
2022-08-10T12:59:14.040Z,43.28
2022-08-10T13:02:09.557Z,43.64
2022-08-10T13:04:44.304Z,43.64
2022-08-10T13:08:03.837Z,42.86
2022-08-10T13:10:25.351Z,42.78
2022-08-10T13:12:59.548Z,42.32
2022-08-10T13:15:49.398Z,42.17
2022-08-10T13:18:29.841Z,42.31
2022-08-10T13:21:20.598Z,41.68
2022-08-10T13:24:15.135Z,40.54
2022-08-10T13:27:26.243Z,40.16
2022-08-10T13:30:06.968Z,39.93
2022-08-10T13:32:51.116Z,39.15
2022-08-10T13:35:25.828Z,38.81
2022-08-10T13:37:59.409Z,38.02
2022-08-10T13:40:33.402Z,37.12
2022-08-10T13:43:08.325Z,36.68
2022-08-10T13:45:46.410Z,36.42
2022-08-10T13:48:24.205Z,36.28
2022-08-10T13:50:59.307Z,36.51
2022-08-10T13:53:33.421Z,36.43
2022-08-10T13:56:10.887Z,36.17
2022-08-10T13:58:43.536Z,35.63
2022-08-10T14:01:22.759Z,35.13
2022-08-10T14:03:55.908Z,34.44
2022-08-10T14:06:30.084Z,34.50
2022-08-10T14:09:10.332Z,34.78
2022-08-10T14:11:44.055Z,35.21
2022-08-10T14:14:18.912Z,35.75
2022-08-10T14:16:51.905Z,35.78
2022-08-10T14:19:28.860Z,35.43
2022-08-10T14:22:01.993Z,35.17
2022-08-10T14:24:34.328Z,34.84
2022-08-10T14:27:10.522Z,34.41
2022-08-10T14:30:10.000Z,33.90
2022-08-10T14:32:44.626Z,33.21
2022-08-10T14:36:20.991Z,32.89
2022-08-10T14:38:19.703Z,32.49
2022-08-10T14:40:55.426Z,32.30
2022-08-10T14:43:40.847Z,32.16
2022-08-10T14:46:20.251Z,32.01
2022-08-10T14:48:55.891Z,32.00
2022-08-10T14:51:44.422Z,32.06
2022-08-10T14:54:18.037Z,31.89
2022-08-10T14:56:50.958Z,31.60
2022-08-10T14:59:45.883Z,31.46
2022-08-10T15:02:40.086Z,31.27
2022-08-10T15:05:17.502Z,31.14
2022-08-10T15:07:58.763Z,31.10
2022-08-10T15:10:32.427Z,31.09
2022-08-10T15:13:34.246Z,31.11
2022-08-10T15:16:13.898Z,31.04
2022-08-10T15:18:58.593Z,30.90
2022-08-10T15:21:43.505Z,30.85
2022-08-10T15:24:38.286Z,30.87
2022-08-10T15:27:11.365Z,30.82
2022-08-10T15:29:44.797Z,30.82
2022-08-10T15:34:01.932Z,30.95
2022-08-10T15:36:39.498Z,30.95
2022-08-10T15:40:24.116Z,31.11
2022-08-10T15:42:20.816Z,31.03
2022-08-10T15:44:55.007Z,30.95
2022-08-10T15:47:45.877Z,30.87
2022-08-10T15:50:40.192Z,30.76
2022-08-10T15:53:49.412Z,30.68
2022-08-10T15:56:34.940Z,30.49
2022-08-10T15:59:15.532Z,30.34
2022-08-10T16:02:14.048Z,29.97
2022-08-10T16:05:11.908Z,29.82
2022-08-10T16:08:00.529Z,29.80
2022-08-10T16:10:53.585Z,29.75
2022-08-10T16:13:50.554Z,29.64
2022-08-10T16:16:31.547Z,29.60
2022-08-10T16:19:22.423Z,29.57
2022-08-10T16:22:02.217Z,29.54
2022-08-10T16:24:38.080Z,29.53
2022-08-10T16:27:11.126Z,29.43
2022-08-10T16:29:56.084Z,29.42
2022-08-10T16:32:32.165Z,29.37
2022-08-10T16:35:09.137Z,29.37
2022-08-10T16:37:56.647Z,29.36
2022-08-10T16:40:32.955Z,29.30
2022-08-10T16:43:09.228Z,29.25
2022-08-10T16:45:48.106Z,29.25
2022-08-10T16:48:48.446Z,29.15
2022-08-10T16:51:22.770Z,29.16
2022-08-10T16:53:59.177Z,29.12
2022-08-10T16:56:48.623Z,29.09
2022-08-10T16:59:24.442Z,29.02
2022-08-10T17:01:58.917Z,29.10
2022-08-10T17:04:34.365Z,28.98
2022-08-10T17:07:14.415Z,29.00
2022-08-10T17:09:50.948Z,29.02
2022-08-10T17:12:30.351Z,29.02
2022-08-10T17:15:10.278Z,28.95
2022-08-10T17:17:49.115Z,28.87
2022-08-10T17:20:32.976Z,28.83
2022-08-10T17:23:10.664Z,28.80
2022-08-10T17:25:46.063Z,28.76
2022-08-10T17:28:34.914Z,28.65
2022-08-10T17:31:23.835Z,28.62
2022-08-10T17:34:12.369Z,28.60
2022-08-10T17:36:49.952Z,28.53
2022-08-10T17:39:29.147Z,28.48
2022-08-10T17:42:04.484Z,28.41
2022-08-10T17:44:39.113Z,28.36
2022-08-10T17:47:12.505Z,28.25
2022-08-10T17:49:45.716Z,28.19
2022-08-10T17:52:23.968Z,28.15
2022-08-10T17:55:01.736Z,28.09
2022-08-10T17:57:39.491Z,28.01
2022-08-10T18:00:14.586Z,27.93
2022-08-10T18:02:49.378Z,27.83
2022-08-10T18:05:21.605Z,27.80
2022-08-10T18:07:56.355Z,27.71
2022-08-10T18:10:29.160Z,27.70
2022-08-10T18:13:01.906Z,27.62
2022-08-10T18:15:38.165Z,27.54
2022-08-10T18:18:17.347Z,27.46
2022-08-10T18:21:02.365Z,27.39
2022-08-10T18:23:38.469Z,27.31
2022-08-10T18:26:15.230Z,27.24
2022-08-10T18:28:53.214Z,27.15
2022-08-10T18:31:26.425Z,27.13
2022-08-10T18:33:59.455Z,27.07
2022-08-10T18:36:38.821Z,26.99
2022-08-10T18:39:13.294Z,26.89
2022-08-10T18:42:00.720Z,26.83
2022-08-10T18:44:55.454Z,26.77
2022-08-10T18:47:39.918Z,26.73
2022-08-10T18:50:49.698Z,26.66
2022-08-10T18:53:48.605Z,26.61
2022-08-10T18:56:40.547Z,26.57
2022-08-10T19:00:03.881Z,26.47
2022-08-10T19:03:53.503Z,26.38
2022-08-10T19:07:02.040Z,26.30
2022-08-10T19:09:48.321Z,26.23
2022-08-10T19:12:50.461Z,26.12
2022-08-10T19:15:42.649Z,26.05
2022-08-10T19:18:34.449Z,25.99
2022-08-10T19:21:33.174Z,25.89
2022-08-10T19:24:15.199Z,25.82
2022-08-10T19:26:59.596Z,25.77
2022-08-10T19:30:11.027Z,25.71
2022-08-10T19:33:10.099Z,25.65
2022-08-10T19:36:04.395Z,25.57
2022-08-10T19:38:50.634Z,25.45
2022-08-10T19:41:44.408Z,25.40
2022-08-10T19:44:31.272Z,25.31
2022-08-10T19:47:12.629Z,25.27
2022-08-10T19:50:04.557Z,25.21
2022-08-10T19:53:02.215Z,25.18
2022-08-10T19:56:18.469Z,25.11
2022-08-10T19:59:13.040Z,25.07
2022-08-10T20:01:55.177Z,25.04
2022-08-10T20:04:34.079Z,25.00
2022-08-10T20:07:51.475Z,24.95
2022-08-10T20:10:54.784Z,24.90
2022-08-10T20:13:41.997Z,24.88
2022-08-10T20:16:22.365Z,24.84
2022-08-10T20:19:10.655Z,24.80
2022-08-10T20:21:53.071Z,24.74
2022-08-10T20:24:49.638Z,24.71
2022-08-10T20:27:58.889Z,24.63
2022-08-10T20:30:31.736Z,24.56
2022-08-10T20:33:12.413Z,24.48
2022-08-10T20:35:49.351Z,24.43
2022-08-10T20:38:32.872Z,24.34
2022-08-10T20:41:46.545Z,24.23
2022-08-10T20:45:11.482Z,24.09
2022-08-10T20:48:22.365Z,23.95
2022-08-10T20:50:59.449Z,23.84
2022-08-10T20:53:45.428Z,23.79
2022-08-10T20:56:25.215Z,23.69
2022-08-10T21:00:04.527Z,23.57
2022-08-10T21:03:25.150Z,23.39
2022-08-10T21:06:52.996Z,23.30
2022-08-10T21:09:58.874Z,23.22
2022-08-10T21:13:06.543Z,23.15
2022-08-10T21:16:49.734Z,22.97
2022-08-10T21:19:53.638Z,22.89
2022-08-10T21:22:47.751Z,22.80
2022-08-10T21:25:35.884Z,22.77
2022-08-10T21:28:35.453Z,22.70
2022-08-10T21:31:30.957Z,22.62
2022-08-10T21:34:54.269Z,22.57
2022-08-10T21:37:57.141Z,22.52
2022-08-10T21:41:18.373Z,22.49
2022-08-10T21:44:20.670Z,22.48
2022-08-10T21:48:16.647Z,22.38
2022-08-10T21:52:01.519Z,22.28
2022-08-10T21:55:11.918Z,22.17
2022-08-10T21:58:30.601Z,22.08
2022-08-10T22:01:39.329Z,22.03
2022-08-10T22:04:32.106Z,21.90
2022-08-10T22:07:24.437Z,21.87
2022-08-10T22:10:17.552Z,21.89
2022-08-10T22:13:11.249Z,21.90
2022-08-10T22:16:14.006Z,21.90
2022-08-10T22:19:14.803Z,21.93
2022-08-10T22:22:27.003Z,21.94
2022-08-10T22:25:36.597Z,21.93
2022-08-10T22:28:33.787Z,21.90
2022-08-10T22:31:36.615Z,21.89
2022-08-10T22:34:52.977Z,21.84
2022-08-10T22:38:11.737Z,21.78
2022-08-10T22:41:04.976Z,21.69
2022-08-10T22:43:56.962Z,21.66
2022-08-10T22:46:51.355Z,21.65
2022-08-10T22:49:24.407Z,21.63
2022-08-10T22:52:08.838Z,21.63
2022-08-10T22:55:32.048Z,21.62
2022-08-10T22:58:22.941Z,21.59
2022-08-10T23:01:42.151Z,21.58
2022-08-10T23:04:36.231Z,21.57
2022-08-10T23:07:17.651Z,21.58
2022-08-10T23:10:09.460Z,21.57
2022-08-10T23:12:48.113Z,21.60
2022-08-10T23:15:54.374Z,21.63
2022-08-10T23:18:56.956Z,21.59
2022-08-10T23:22:02.851Z,21.59
2022-08-10T23:24:43.595Z,21.54
2022-08-10T23:27:38.999Z,21.50
2022-08-10T23:30:17.065Z,21.44
2022-08-10T23:32:59.375Z,21.39
2022-08-10T23:36:30.534Z,21.37
2022-08-10T23:38:53.303Z,21.34
2022-08-10T23:41:31.733Z,21.29
2022-08-10T23:44:04.785Z,21.30
2022-08-10T23:46:41.810Z,21.30
2022-08-10T23:49:14.445Z,21.33
2022-08-10T23:51:56.287Z,21.31
2022-08-10T23:54:30.014Z,21.30
2022-08-10T23:57:02.938Z,21.28
2022-08-10T23:59:35.812Z,21.26
